BTK6170 WIII-WAPP
Flight info
| Callsign | BTK6170 |
|---|---|
| Flight time | N/A |
| Altitude | 35000 |
| Route | CA T5 SASKA |
| Aircraft | A320/M-SDE3FGHIRWY/LB1 |
Departure
| Time | 2026-05-07 10:41 |
|---|---|
| Airport | Soekarno-Hatta International Airport (WIII) |
Arrival
| Time | N/A |
|---|---|
| Airport | Pattimura International Airport (WAPP) |
| Time | Latitude | Longitude | Altitude | Speed | Heading |
|---|---|---|---|---|---|
| 2026-05-07 10:20 | -6.12224 | 106.65026 | 43 ft | 0 kts | 178° |
| 2026-05-07 10:31 | -6.12222 | 106.65026 | 43 ft | 1 kts | 178° |
| 2026-05-07 10:31 | -6.12208 | 106.65025 | 43 ft | 2 kts | 178° |
| 2026-05-07 10:32 | -6.12194 | 106.65025 | 43 ft | 0 kts | 178° |
| 2026-05-07 10:32 | -6.12183 | 106.65025 | 43 ft | 2 kts | 168° |
| 2026-05-07 10:32 | -6.12169 | 106.65019 | 43 ft | 2 kts | 153° |
| 2026-05-07 10:32 | -6.12157 | 106.65012 | 43 ft | 2 kts | 138° |
| 2026-05-07 10:33 | -6.12146 | 106.65000 | 43 ft | 2 kts | 123° |
| 2026-05-07 10:33 | -6.12139 | 106.64986 | 43 ft | 2 kts | 109° |
| 2026-05-07 10:33 | -6.12136 | 106.64972 | 43 ft | 2 kts | 94° |
| 2026-05-07 10:33 | -6.12136 | 106.64957 | 43 ft | 2 kts | 79° |
| 2026-05-07 10:34 | -6.12139 | 106.64946 | 43 ft | 0 kts | 69° |
| 2026-05-07 10:34 | -6.12142 | 106.64941 | 43 ft | 0 kts | 66° |
| 2026-05-07 10:36 | -6.12140 | 106.64945 | 42 ft | 2 kts | 66° |
| 2026-05-07 10:36 | -6.12128 | 106.64973 | 42 ft | 6 kts | 66° |
| 2026-05-07 10:36 | -6.12081 | 106.65007 | 42 ft | 10 kts | 13° |
| 2026-05-07 10:36 | -6.11994 | 106.65023 | 42 ft | 14 kts | 11° |
| 2026-05-07 10:37 | -6.11885 | 106.65002 | 42 ft | 18 kts | 324° |
| 2026-05-07 10:37 | -6.11893 | 106.64880 | 42 ft | 19 kts | 249° |
| 2026-05-07 10:37 | -6.11943 | 106.64754 | 42 ft | 19 kts | 247° |
| 2026-05-07 10:37 | -6.11993 | 106.64629 | 42 ft | 18 kts | 249° |
| 2026-05-07 10:38 | -6.12040 | 106.64509 | 42 ft | 18 kts | 248° |
| 2026-05-07 10:38 | -6.12086 | 106.64391 | 42 ft | 18 kts | 249° |
| 2026-05-07 10:38 | -6.12130 | 106.64274 | 42 ft | 17 kts | 249° |
| 2026-05-07 10:38 | -6.12176 | 106.64159 | 42 ft | 17 kts | 246° |
| 2026-05-07 10:39 | -6.12223 | 106.64049 | 42 ft | 17 kts | 248° |
| 2026-05-07 10:39 | -6.12244 | 106.63934 | 42 ft | 16 kts | 288° |
| 2026-05-07 10:39 | -6.12149 | 106.63897 | 42 ft | 16 kts | 25° |
| 2026-05-07 10:39 | -6.12067 | 106.63970 | 42 ft | 15 kts | 66° |
| 2026-05-07 10:40 | -6.12014 | 106.64104 | 43 ft | 40 kts | 68° |
| 2026-05-07 10:40 | -6.11832 | 106.64554 | 43 ft | 100 kts | 69° |
| 2026-05-07 10:40 | -6.11509 | 106.65369 | 45 ft | 149 kts | 67° |
| 2026-05-07 10:40 | -6.11122 | 106.66385 | 379 ft | 159 kts | 69° |
| 2026-05-07 10:41 | -6.10764 | 106.67393 | 851 ft | 162 kts | 69° |
| 2026-05-07 10:41 | -6.10320 | 106.68433 | 1412 ft | 163 kts | 55° |
| 2026-05-07 10:41 | -6.09603 | 106.69282 | 1901 ft | 165 kts | 46° |
| 2026-05-07 10:41 | -6.08766 | 106.70124 | 2222 ft | 175 kts | 44° |
| 2026-05-07 10:42 | -6.07865 | 106.71016 | 2503 ft | 189 kts | 45° |
| 2026-05-07 10:42 | -6.06893 | 106.71987 | 2794 ft | 204 kts | 45° |
| 2026-05-07 10:42 | -6.05847 | 106.73043 | 3003 ft | 225 kts | 45° |
| 2026-05-07 10:42 | -6.04715 | 106.74191 | 3359 ft | 241 kts | 45° |
| 2026-05-07 10:43 | -6.03496 | 106.75433 | 3705 ft | 258 kts | 45° |
| 2026-05-07 10:43 | -6.02204 | 106.76749 | 4249 ft | 268 kts | 45° |
| 2026-05-07 10:43 | -6.00910 | 106.78070 | 4969 ft | 270 kts | 45° |
| 2026-05-07 10:43 | -5.99628 | 106.79379 | 5670 ft | 273 kts | 45° |
| 2026-05-07 10:44 | -5.98416 | 106.80851 | 6360 ft | 277 kts | 63° |
| 2026-05-07 10:44 | -5.97940 | 106.82685 | 7041 ft | 282 kts | 90° |
| 2026-05-07 10:44 | -5.98323 | 106.84605 | 7801 ft | 284 kts | 108° |
| 2026-05-07 10:44 | -5.98963 | 106.86414 | 8527 ft | 287 kts | 109° |
| 2026-05-07 10:45 | -5.99635 | 106.88268 | 9224 ft | 290 kts | 109° |
| 2026-05-07 10:45 | -6.00314 | 106.90171 | 9935 ft | 293 kts | 109° |
| 2026-05-07 10:45 | -6.00995 | 106.92110 | 10461 ft | 303 kts | 109° |
| 2026-05-07 10:45 | -6.01705 | 106.94153 | 10766 ft | 321 kts | 109° |